Time;durP1;ratioP1;P1;durP2;ratioP2;P2;SDS_P1;SDS_P2;PMS_P1;PMS_P2;Temp;Humidity;BMP_temperature;BMP_pressure;BME280_temperature;BME280_humidity;BME280_pressure;Samples;Min_cycle;Max_cycle;Signal;HPM_P1;HPM_P2
2021/12/27 00:01:33;;;;;;;75.60;28.20;;;;;;;-3.29;83.16;100008.97;105049;1317;73460;-79
2021/12/27 00:04:00;;;;;;;94.60;32.80;;;;;;;-3.25;82.96;100006.19;104889;1310;70799;-82
2021/12/27 00:06:27;;;;;;;82.90;30.20;;;;;;;-3.24;82.89;100007.63;104896;1322;72916;-79
2021/12/27 00:08:54;;;;;;;74.40;30.20;;;;;;;-3.22;83.02;100003.56;104965;1326;61659;-80
2021/12/27 00:11:21;;;;;;;82.60;32.80;;;;;;;-3.21;83.00;100006.73;104605;1323;60214;-80
2021/12/27 00:13:48;;;;;;;80.30;31.90;;;;;;;-3.18;82.92;100010.55;103620;1332;73401;-81
2021/12/27 00:16:14;;;;;;;90.20;34.80;;;;;;;-3.16;83.16;100009.71;104984;1322;71653;-81
2021/12/27 00:18:41;;;;;;;85.90;29.10;;;;;;;-3.14;83.19;100013.37;104754;1326;73105;-79
2021/12/27 00:21:09;;;;;;;73.80;29.00;;;;;;;-3.14;83.06;100015.97;105010;1320;61034;-78
2021/12/27 00:23:36;;;;;;;90.10;33.50;;;;;;;-3.15;83.15;100013.44;104959;1320;60281;-78
2021/12/27 00:26:03;;;;;;;91.70;35.90;;;;;;;-3.13;83.06;100013.98;104896;1323;73967;-78
2021/12/27 00:28:30;;;;;;;95.80;32.70;;;;;;;-3.11;83.19;100008.33;104748;1326;72255;-79
2021/12/27 00:31:01;;;;;;;75.50;28.30;;;;;;;-3.08;83.37;100002.90;104907;1326;71597;-79
2021/12/27 00:33:28;;;;;;;94.50;35.70;;;;;;;-3.07;83.17;99999.56;104130;1325;60581;-78
2021/12/27 00:35:55;;;;;;;21.50;8.60;;;;;;;-3.05;83.43;99991.52;104825;1326;60653;-77
2021/12/27 00:38:22;;;;;;;75.80;29.40;;;;;;;-3.05;83.54;99990.79;104790;1326;73779;-77
2021/12/27 00:40:48;;;;;;;68.10;30.80;;;;;;;-3.05;83.73;99980.21;104284;1326;71653;-77
2021/12/27 00:43:16;;;;;;;76.20;32.80;;;;;;;-3.04;83.78;99972.91;103595;1332;73963;-78
2021/12/27 00:45:43;;;;;;;76.30;30.60;;;;;;;-3.02;84.06;99963.27;104263;1325;62595;-78
2021/12/27 00:48:10;;;;;;;82.80;33.50;;;;;;;-3.01;84.08;99959.54;104812;1325;60691;-78
2021/12/27 00:50:37;;;;;;;76.80;32.20;;;;;;;-2.99;84.22;99956.81;104584;1329;73369;-81
2021/12/27 00:53:04;;;;;;;82.30;31.10;;;;;;;-2.97;84.19;99964.77;104814;1322;71443;-78
2021/12/27 00:55:30;;;;;;;79.30;32.70;;;;;;;-2.95;84.32;99969.66;104666;1325;73904;-80
2021/12/27 00:57:57;;;;;;;66.00;26.70;;;;;;;-2.93;84.23;99969.91;104811;1327;58058;-78
2021/12/27 01:00:27;;;;;;;60.30;22.50;;;;;;;-2.93;84.35;99962.80;104727;1322;61325;-77
2021/12/27 01:02:55;;;;;;;83.90;30.40;;;;;;;-2.94;84.31;99954.70;104654;1328;73252;-81
2021/12/27 01:05:25;;;;;;;88.20;29.00;;;;;;;-2.94;84.51;99954.89;104422;1326;71511;-78
2021/12/27 01:07:52;;;;;;;72.80;28.90;;;;;;;-2.94;84.43;99955.80;104543;1323;72962;-78
2021/12/27 01:13:06;;;;;;;74.10;29.70;;;;;;;-2.91;84.37;99943.98;104382;1325;60547;-78
2021/12/27 01:18:02;;;;;;;60.30;23.80;;;;;;;-2.92;84.19;99943.14;104468;1325;72729;-79
2021/12/27 01:20:29;;;;;;;73.40;27.10;;;;;;;-2.94;84.27;99941.71;104900;1329;73957;-78
2021/12/27 01:22:56;;;;;;;55.70;19.10;;;;;;;-2.94;84.32;99938.48;103618;1329;61316;-78
2021/12/27 01:25:24;;;;;;;69.40;23.90;;;;;;;-2.96;84.25;99939.79;103678;1332;60397;-79
2021/12/27 01:27:56;;;;;;;87.10;29.60;;;;;;;-2.96;84.42;99934.47;104415;1325;73394;-79
2021/12/27 01:30:22;;;;;;;88.80;33.00;;;;;;;-2.96;84.39;99930.98;104028;1320;71191;-81
2021/12/27 01:32:54;;;;;;;75.80;29.60;;;;;;;-2.96;84.33;99936.84;104335;1328;72920;-81
2021/12/27 01:35:21;;;;;;;63.60;21.40;;;;;;;-2.96;84.49;99936.31;104902;1323;60993;-79
2021/12/27 01:37:50;;;;;;;74.40;26.10;;;;;;;-2.97;84.36;99931.23;104719;1327;61597;-78
2021/12/27 01:40:20;;;;;;;68.30;26.90;;;;;;;-2.99;84.50;99933.45;103969;1323;74458;-78
2021/12/27 01:45:34;;;;;;;;;;;;;;;-3.01;84.55;99939.31;104598;1318;73109;-79
2021/12/27 01:48:01;;;;;;;77.00;25.80;;;;;;;-3.00;84.67;99941.31;104820;1326;61309;-79
2021/12/27 01:50:27;;;;;;;80.00;31.40;;;;;;;-2.99;84.86;99940.35;104608;1327;60249;-79
2021/12/27 01:52:54;;;;;;;84.50;30.00;;;;;;;-2.97;84.78;99939.21;104605;1326;59598;-81
2021/12/27 01:55:20;;;;;;;69.00;25.80;;;;;;;-2.98;84.76;99934.56;104811;1328;57208;-81
2021/12/27 01:57:47;;;;;;;84.10;33.40;;;;;;;-2.97;84.80;99932.13;104609;1325;73023;-81
2021/12/27 02:00:14;;;;;;;88.70;33.90;;;;;;;-2.97;85.05;99934.35;104751;1329;61214;-81
2021/12/27 02:02:44;;;;;;;81.30;33.30;;;;;;;-2.95;85.10;99932.54;103792;1328;61416;-81
2021/12/27 02:05:11;;;;;;;91.30;36.30;;;;;;;-2.95;85.24;99927.83;104689;1323;74713;-78
2021/12/27 02:07:39;;;;;;;75.60;25.90;;;;;;;-2.95;85.11;99930.03;104721;1321;71620;-78
2021/12/27 02:10:06;;;;;;;71.50;25.40;;;;;;;-2.96;85.09;99924.39;104673;1328;72850;-78
2021/12/27 02:12:33;;;;;;;75.60;34.70;;;;;;;-2.96;85.06;99924.45;104850;1329;61430;-80
2021/12/27 02:15:06;;;;;;;70.20;25.50;;;;;;;-2.97;85.12;99922.91;104718;1326;61300;-79
2021/12/27 02:17:32;;;;;;;78.20;32.30;;;;;;;-2.98;85.04;99922.31;104685;1328;72465;-78
2021/12/27 02:19:59;;;;;;;76.20;31.90;;;;;;;-2.98;85.01;99922.67;104701;1328;71603;-81
2021/12/27 02:22:28;;;;;;;88.20;33.30;;;;;;;-2.97;85.07;99921.04;104546;1322;72779;-79
2021/12/27 02:24:55;;;;;;;72.00;27.20;;;;;;;-2.96;85.02;99915.95;103824;1328;62392;-78
2021/12/27 02:27:22;;;;;;;73.00;26.00;;;;;;;-2.94;85.28;99910.83;103558;1329;60924;-79
2021/12/27 02:29:48;;;;;;;91.50;33.90;;;;;;;-2.93;85.20;99906.75;104702;1325;74407;-78
2021/12/27 02:32:14;;;;;;;72.60;23.60;;;;;;;-2.92;85.05;99906.83;104663;1329;57613;-78
2021/12/27 02:34:41;;;;;;;82.00;35.10;;;;;;;-2.92;85.00;99901.44;104472;1329;57359;-78
2021/12/27 02:37:08;;;;;;;58.00;22.80;;;;;;;-2.92;85.09;99900.06;104593;1328;61625;-81
2021/12/27 02:39:36;;;;;;;72.90;27.70;;;;;;;-2.92;85.20;99898.17;104527;1325;61583;-80
2021/12/27 02:42:04;;;;;;;85.70;29.70;;;;;;;-2.93;84.96;99894.09;104547;1328;73348;-79
2021/12/27 02:44:30;;;;;;;67.50;27.40;;;;;;;-2.92;85.07;99892.80;104360;1326;71580;-79
2021/12/27 02:46:57;;;;;;;81.40;34.10;;;;;;;-2.90;85.00;99890.77;104266;1326;74304;-81
2021/12/27 02:49:24;;;;;;;77.60;31.60;;;;;;;-2.88;85.32;99888.73;104333;1320;61784;-81
2021/12/27 02:51:52;;;;;;;76.10;25.80;;;;;;;-2.87;85.30;99886.08;104395;1331;61814;-80
2021/12/27 02:54:19;;;;;;;79.00;30.00;;;;;;;-2.87;85.24;99888.46;104280;1330;73556;-79
2021/12/27 02:56:47;;;;;;;76.50;33.20;;;;;;;-2.86;85.31;99886.89;104572;1329;72482;-78
2021/12/27 02:59:14;;;;;;;92.50;36.50;;;;;;;-2.83;85.31;99886.33;104488;1329;74107;-79
2021/12/27 03:01:41;;;;;;;78.10;35.40;;;;;;;-2.80;85.48;99878.34;104537;1327;60514;-79
2021/12/27 03:04:08;;;;;;;78.50;27.80;;;;;;;-2.78;85.78;99873.20;104477;1324;60819;-79
2021/12/27 03:06:35;;;;;;;91.60;32.90;;;;;;;-2.78;86.00;99874.71;104583;1329;74515;-80
2021/12/27 03:09:02;;;;;;;78.40;30.00;;;;;;;-2.78;86.03;99868.66;103879;1332;72471;-80
2021/12/27 03:11:29;;;;;;;96.90;34.80;;;;;;;-2.77;86.08;99861.80;104291;1330;74104;-78
2021/12/27 03:13:55;;;;;;;75.50;28.50;;;;;;;-2.77;85.88;99866.64;104557;1316;61475;-81
2021/12/27 03:16:24;;;;;;;99.50;38.00;;;;;;;-2.76;86.06;99872.69;105175;1320;60353;-80
2021/12/27 03:18:53;;;;;;;80.40;29.30;;;;;;;-2.75;86.19;99867.55;104489;1328;72296;-79
2021/12/27 03:21:22;;;;;;;101.70;37.10;;;;;;;-2.72;86.09;99867.02;104369;1329;72345;-78
2021/12/27 03:23:49;;;;;;;86.90;34.40;;;;;;;-2.71;86.29;99864.89;104527;1311;72101;-79
2021/12/27 03:26:20;;;;;;;57.30;23.00;;;;;;;-2.71;86.31;99860.35;104764;1323;61861;-79
2021/12/27 03:28:47;;;;;;;88.00;34.80;;;;;;;-2.71;86.30;99864.04;104760;1328;60409;-79
2021/12/27 03:31:15;;;;;;;101.90;37.60;;;;;;;-2.73;86.43;99861.02;104449;1331;75340;-78
2021/12/27 03:33:42;;;;;;;87.50;35.40;;;;;;;-2.73;86.19;99859.27;104436;1330;72259;-79
2021/12/27 03:36:09;;;;;;;65.70;27.70;;;;;;;-2.74;86.03;99865.76;104412;1329;73108;-79
2021/12/27 03:38:43;;;;;;;84.70;27.70;;;;;;;-2.76;85.93;99858.63;103443;1339;63172;-79
2021/12/27 03:41:14;;;;;;;59.70;26.80;;;;;;;-2.76;86.05;99851.02;104232;1327;60770;-80
2021/12/27 03:43:42;;;;;;;88.70;28.10;;;;;;;-2.77;86.21;99848.83;103971;1326;74215;-78
2021/12/27 03:46:09;;;;;;;82.00;31.90;;;;;;;-2.77;86.38;99850.59;104557;1330;72140;-79
2021/12/27 03:48:36;;;;;;;81.70;33.90;;;;;;;-2.78;86.48;99853.58;104253;1330;72721;-78
2021/12/27 03:51:03;;;;;;;78.80;29.00;;;;;;;-2.77;86.60;99852.67;104274;1326;61338;-78
2021/12/27 03:53:30;;;;;;;61.10;27.00;;;;;;;-2.78;86.68;99850.13;104417;1329;61575;-79
2021/12/27 03:56:00;;;;;;;89.20;35.30;;;;;;;-2.79;86.83;99840.19;104521;1328;75401;-79
2021/12/27 03:58:34;;;;;;;80.50;29.60;;;;;;;-2.78;87.15;99840.29;104559;1323;70492;-79
2021/12/27 04:03:33;;;;;;;83.70;28.90;;;;;;;-2.80;87.57;99832.96;104442;1326;61708;-78
2021/12/27 04:06:00;;;;;;;41.90;14.20;;;;;;;-2.79;87.58;99830.70;104436;1328;61548;-78
2021/12/27 04:08:27;;;;;;;70.30;26.30;;;;;;;-2.81;87.82;99827.51;104543;1329;73801;-78
2021/12/27 04:10:55;;;;;;;67.50;24.70;;;;;;;-2.81;88.07;99827.02;103834;1310;71664;-78
2021/12/27 04:13:23;;;;;;;89.20;37.00;;;;;;;-2.81;88.18;99821.11;104124;1310;76839;-80
2021/12/27 04:15:51;;;;;;;64.80;23.60;;;;;;;-2.81;88.56;99815.58;104871;1323;61393;-79
2021/12/27 04:18:20;;;;;;;88.90;33.40;;;;;;;-2.82;88.68;99814.77;104506;1310;60321;-78
2021/12/27 04:20:47;;;;;;;96.40;36.70;;;;;;;-2.83;88.83;99813.98;104797;1328;74212;-80
2021/12/27 04:23:14;;;;;;;94.20;34.10;;;;;;;-2.82;89.12;99815.88;103660;1330;71587;-81
2021/12/27 04:25:41;;;;;;;93.20;30.00;;;;;;;-2.83;89.35;99818.16;104706;1325;73725;-79
2021/12/27 04:28:08;;;;;;;85.70;30.60;;;;;;;-2.83;89.48;99816.23;104172;1326;62467;-78
2021/12/27 04:30:36;;;;;;;77.20;28.70;;;;;;;-2.82;89.69;99814.63;104760;1321;60538;-78
2021/12/27 04:33:03;;;;;;;72.90;25.60;;;;;;;-2.81;89.90;99811.79;104693;1329;75361;-78
2021/12/27 04:35:30;;;;;;;72.20;30.60;;;;;;;-2.80;90.22;99812.41;104531;1326;71571;-78
2021/12/27 04:37:57;;;;;;;51.80;20.10;;;;;;;-2.80;90.31;99808.95;104731;1323;73135;-80
2021/12/27 04:40:28;;;;;;;80.30;33.20;;;;;;;-2.82;90.50;99805.95;103388;1339;61765;-79
2021/12/27 04:43:03;;;;;;;76.10;26.30;;;;;;;-2.82;90.81;99803.55;104576;1324;61824;-78
2021/12/27 04:45:29;;;;;;;64.20;28.50;;;;;;;-2.82;91.25;99806.70;103537;1333;74377;-79
2021/12/27 04:47:56;;;;;;;71.00;26.40;;;;;;;-2.83;91.59;99801.37;104729;1322;73119;-80
2021/12/27 04:50:23;;;;;;;76.20;32.20;;;;;;;-2.84;92.19;99796.27;104732;1327;58273;-80
2021/12/27 04:52:53;;;;;;;89.30;33.10;;;;;;;-2.86;92.50;99792.08;104018;1329;61157;-79
2021/12/27 04:55:21;;;;;;;63.50;20.80;;;;;;;-2.85;92.44;99795.80;104093;1327;61306;-78
2021/12/27 04:57:48;;;;;;;87.20;32.00;;;;;;;-2.86;92.74;99795.31;103867;1329;74232;-78
2021/12/27 05:00:15;;;;;;;95.30;32.40;;;;;;;-2.85;93.05;99794.41;104258;1310;72450;-79
2021/12/27 05:02:42;;;;;;;101.50;37.70;;;;;;;-2.83;93.02;99792.91;104683;1310;73732;-80
2021/12/27 05:05:09;;;;;;;98.00;37.50;;;;;;;-2.81;93.21;99788.97;103972;1308;61194;-81
2021/12/27 05:07:36;;;;;;;103.50;36.80;;;;;;;-2.79;93.26;99783.65;104950;1326;60609;-80
2021/12/27 05:10:05;;;;;;;90.20;32.80;;;;;;;-2.78;93.19;99782.33;104646;1329;74206;-80
2021/12/27 05:12:31;;;;;;;102.20;39.30;;;;;;;-2.78;93.38;99777.98;104983;1322;71430;-79
2021/12/27 05:14:58;;;;;;;68.90;26.10;;;;;;;-2.77;93.33;99778.25;104929;1322;72970;-78
2021/12/27 05:17:24;;;;;;;71.60;28.20;;;;;;;-2.76;93.37;99772.84;104976;1328;62557;-78
2021/12/27 05:19:52;;;;;;;81.90;31.00;;;;;;;-2.75;93.48;99767.21;104778;1322;61705;-80
2021/12/27 05:22:19;;;;;;;80.90;29.40;;;;;;;-2.75;93.34;99762.23;103702;1329;58940;-78
2021/12/27 05:24:45;;;;;;;102.30;41.10;;;;;;;-2.76;93.39;99764.99;104899;1323;71380;-78
2021/12/27 05:27:12;;;;;;;74.00;26.80;;;;;;;-2.74;93.28;99770.41;104215;1323;72960;-79
2021/12/27 05:29:39;;;;;;;89.20;31.50;;;;;;;-2.73;93.16;99770.51;104942;1326;62449;-79
2021/12/27 05:32:07;;;;;;;88.00;33.90;;;;;;;-2.70;93.08;99769.61;104609;1329;60471;-79
2021/12/27 05:34:35;;;;;;;104.50;41.50;;;;;;;-2.67;92.85;99767.30;104565;1322;72848;-78
2021/12/27 05:37:03;;;;;;;78.40;28.40;;;;;;;-2.63;92.77;99764.26;104551;1322;72505;-78
2021/12/27 05:39:34;;;;;;;106.80;41.80;;;;;;;-2.60;92.63;99761.62;104585;1325;74195;-79
2021/12/27 05:42:00;;;;;;;81.30;29.20;;;;;;;-2.56;92.36;99761.14;103790;1330;61145;-78
2021/12/27 05:44:27;;;;;;;118.80;39.40;;;;;;;-2.53;92.21;99753.33;104894;1322;58051;-80
2021/12/27 05:46:54;;;;;;;89.60;33.50;;;;;;;-2.53;91.91;99752.79;104565;1323;75342;-78
2021/12/27 05:49:22;;;;;;;73.90;27.30;;;;;;;-2.53;91.87;99752.95;104915;1327;72544;-80
2021/12/27 05:51:49;;;;;;;98.60;39.90;;;;;;;-2.53;91.80;99752.24;103602;1333;71996;-79
2021/12/27 05:54:16;;;;;;;87.50;31.20;;;;;;;-2.52;91.60;99749.06;104547;1325;62500;-79
2021/12/27 05:56:43;;;;;;;101.20;36.40;;;;;;;-2.52;91.51;99751.50;104748;1323;61599;-78
2021/12/27 05:59:12;;;;;;;108.60;38.40;;;;;;;-2.51;91.64;99748.45;104667;1318;75839;-78
2021/12/27 06:01:40;;;;;;;96.30;36.50;;;;;;;-2.49;91.42;99751.77;104842;1323;72499;-79
2021/12/27 06:04:07;;;;;;;90.10;31.60;;;;;;;-2.48;91.36;99750.96;104558;1329;72942;-78
2021/12/27 06:06:35;;;;;;;72.20;26.40;;;;;;;-2.48;90.99;99750.48;104810;1322;61435;-78
2021/12/27 06:09:03;;;;;;;85.10;35.50;;;;;;;-2.48;90.89;99741.85;104548;1328;60880;-79
2021/12/27 06:11:30;;;;;;;100.20;40.30;;;;;;;-2.48;91.15;99739.02;104646;1325;75109;-80
2021/12/27 06:13:56;;;;;;;94.10;40.20;;;;;;;-2.46;91.19;99740.63;103705;1329;71411;-78
2021/12/27 06:16:23;;;;;;;99.10;38.80;;;;;;;-2.45;91.09;99738.83;104889;1321;72731;-78
2021/12/27 06:18:50;;;;;;;99.80;32.20;;;;;;;-2.46;91.11;99742.17;104951;1322;62608;-79
2021/12/27 06:21:16;;;;;;;86.40;33.40;;;;;;;-2.47;91.10;99743.66;103544;1329;60581;-78
2021/12/27 06:23:43;;;;;;;93.20;31.00;;;;;;;-2.48;91.12;99741.50;103717;1332;74165;-80
2021/12/27 06:26:10;;;;;;;93.60;36.10;;;;;;;-2.50;91.16;99739.04;104910;1323;72571;-78
2021/12/27 06:28:36;;;;;;;92.60;27.90;;;;;;;-2.51;91.25;99742.92;104927;1324;58366;-78
2021/12/27 06:31:03;;;;;;;97.70;40.10;;;;;;;-2.52;91.35;99740.88;104898;1322;61577;-78
2021/12/27 06:33:29;;;;;;;98.40;34.20;;;;;;;-2.50;91.47;99738.30;104680;1326;61525;-78
2021/12/27 06:35:59;;;;;;;106.10;39.80;;;;;;;-2.48;91.59;99733.30;103720;1330;75222;-78
2021/12/27 06:38:25;;;;;;;89.90;34.70;;;;;;;-2.47;91.67;99730.98;104481;1328;72549;-80
2021/12/27 06:40:52;;;;;;;96.90;36.40;;;;;;;-2.44;91.60;99727.73;104452;1325;72904;-79
2021/12/27 06:43:18;;;;;;;97.80;33.90;;;;;;;-2.43;91.58;99720.58;104590;1329;61417;-79
2021/12/27 06:45:45;;;;;;;100.30;37.90;;;;;;;-2.43;91.51;99725.23;104436;1324;61608;-78
2021/12/27 06:48:12;;;;;;;121.70;40.00;;;;;;;-2.43;91.62;99727.31;104480;1325;74209;-79
2021/12/27 06:50:39;;;;;;;111.30;38.80;;;;;;;-2.43;91.57;99728.48;104649;1324;71412;-78
2021/12/27 06:53:05;;;;;;;93.10;37.60;;;;;;;-2.43;91.65;99722.29;104672;1327;72987;-78
2021/12/27 06:55:32;;;;;;;95.10;39.50;;;;;;;-2.43;91.68;99725.21;104563;1325;58250;-78
2021/12/27 06:57:58;;;;;;;76.00;31.20;;;;;;;-2.43;91.90;99721.39;103912;1330;58196;-79
2021/12/27 07:00:26;;;;;;;96.70;38.60;;;;;;;-2.43;92.03;99720.87;104650;1326;75135;-79
2021/12/27 07:02:52;;;;;;;121.50;42.90;;;;;;;-2.42;92.18;99719.77;104070;1332;71198;-80
2021/12/27 07:05:19;;;;;;;106.20;40.60;;;;;;;-2.42;92.37;99722.70;104685;1326;72913;-79
2021/12/27 07:07:46;;;;;;;78.10;27.70;;;;;;;-2.42;92.61;99722.02;104053;1329;61175;-78
2021/12/27 07:10:16;;;;;;;80.10;33.80;;;;;;;-2.42;92.70;99722.73;104559;1325;62039;-80
2021/12/27 07:12:42;;;;;;;93.70;34.00;;;;;;;-2.43;92.76;99724.31;104545;1326;74124;-79
2021/12/27 07:15:09;;;;;;;84.10;33.60;;;;;;;-2.41;92.98;99720.23;104555;1325;72469;-78
2021/12/27 07:17:36;;;;;;;83.80;29.80;;;;;;;-2.40;93.11;99717.87;104285;1319;71144;-78
2021/12/27 07:20:04;;;;;;;96.40;34.40;;;;;;;-2.38;93.01;99712.21;104412;1329;60608;-79
2021/12/27 07:22:31;;;;;;;109.90;39.90;;;;;;;-2.39;93.12;99708.96;104595;1326;59575;-78
2021/12/27 07:24:58;;;;;;;81.50;32.70;;;;;;;-2.38;93.44;99705.63;104580;1325;74129;-79
2021/12/27 07:27:24;;;;;;;80.70;33.20;;;;;;;-2.38;93.53;99707.70;104059;1330;58368;-78
2021/12/27 07:29:51;;;;;;;83.90;27.90;;;;;;;-2.39;93.96;99703.11;104365;1328;73073;-80
2021/12/27 07:32:18;;;;;;;89.30;31.40;;;;;;;-2.40;94.20;99701.09;104642;1323;61522;-80
2021/12/27 07:34:46;;;;;;;111.20;38.70;;;;;;;-2.39;94.28;99704.98;104017;1325;59210;-79
2021/12/27 07:37:15;;;;;;;86.20;31.90;;;;;;;-2.37;94.40;99710.95;104100;1326;74056;-78
2021/12/27 07:39:43;;;;;;;97.90;32.20;;;;;;;-2.36;94.51;99717.77;103660;1331;71834;-79
2021/12/27 07:42:09;;;;;;;89.60;28.80;;;;;;;-2.34;94.62;99721.44;104309;1323;470006;-78
2021/12/27 07:44:36;;;;;;;103.30;36.80;;;;;;;-2.32;94.70;99722.46;104409;1325;58648;-80
2021/12/27 07:47:03;;;;;;;106.30;35.90;;;;;;;-2.30;94.65;99719.87;103536;1332;60583;-81
2021/12/27 07:49:30;;;;;;;95.90;31.70;;;;;;;-2.29;94.69;99716.35;104589;1325;74155;-78
2021/12/27 07:51:56;;;;;;;112.50;40.00;;;;;;;-2.28;94.75;99715.39;104874;1323;72471;-79
2021/12/27 07:54:24;;;;;;;111.50;37.20;;;;;;;-2.26;95.03;99719.39;104887;1322;74468;-79
2021/12/27 07:56:51;;;;;;;104.40;39.10;;;;;;;-2.23;94.96;99715.17;104675;1324;61228;-79
2021/12/27 07:59:17;;;;;;;119.80;41.20;;;;;;;-2.20;95.04;99711.17;104899;1321;61619;-79
2021/12/27 08:01:45;;;;;;;72.00;27.70;;;;;;;-2.18;95.08;99710.48;104885;1322;75286;-79
2021/12/27 08:04:11;;;;;;;107.60;39.70;;;;;;;-2.16;95.16;99707.55;104145;1331;71439;-78
2021/12/27 08:06:38;;;;;;;107.00;44.20;;;;;;;-2.14;95.03;99707.73;104903;1322;73371;-79
2021/12/27 08:09:06;;;;;;;91.20;34.90;;;;;;;-2.11;95.09;99703.53;104716;1323;61565;-79
2021/12/27 08:11:33;;;;;;;88.40;28.70;;;;;;;-2.08;95.12;99703.85;104056;1323;60839;-78
2021/12/27 08:14:00;;;;;;;112.50;40.20;;;;;;;-2.04;95.36;99701.98;104718;1322;73091;-78
2021/12/27 08:16:27;;;;;;;112.10;41.70;;;;;;;-2.00;95.24;99704.65;104865;1322;70692;-79
2021/12/27 08:18:55;;;;;;;105.30;37.70;;;;;;;-1.95;95.30;99709.45;104889;1323;72640;-80
2021/12/27 08:21:24;;;;;;;94.80;36.40;;;;;;;-1.91;95.39;99710.32;104389;1325;62678;-79
2021/12/27 08:23:52;;;;;;;54.80;19.60;;;;;;;-1.87;95.10;99703.62;104812;1323;60688;-77
2021/12/27 08:26:19;;;;;;;80.70;27.50;;;;;;;-1.84;95.12;99698.52;103712;1330;75659;-80
2021/12/27 08:28:50;;;;;;;94.70;34.40;;;;;;;-1.78;95.21;99699.62;104646;1324;72493;-77
2021/12/27 08:31:16;;;;;;;113.80;46.70;;;;;;;-1.73;95.02;99699.38;104562;1325;72819;-79
2021/12/27 08:33:43;;;;;;;128.10;46.30;;;;;;;-1.65;94.88;99702.26;104588;1329;61128;-77
2021/12/27 08:36:10;;;;;;;106.90;37.40;;;;;;;-1.59;94.71;99704.19;104859;1322;61649;-78
2021/12/27 08:38:37;;;;;;;70.40;26.80;;;;;;;-1.55;94.35;99702.45;104866;1327;75364;-77
2021/12/27 08:41:03;;;;;;;143.80;47.80;;;;;;;-1.53;94.09;99705.41;104166;1323;72644;-79
2021/12/27 08:43:30;;;;;;;112.10;44.00;;;;;;;-1.50;94.17;99703.09;104376;1323;72982;-77
2021/12/27 08:45:59;;;;;;;113.40;41.80;;;;;;;-1.47;94.02;99699.95;104842;1323;61188;-79
2021/12/27 08:48:26;;;;;;;91.50;29.20;;;;;;;-1.44;93.83;99696.21;104593;1325;61816;-78
2021/12/27 08:50:52;;;;;;;118.80;39.90;;;;;;;-1.44;93.69;99691.34;104683;1322;74088;-77
2021/12/27 08:53:19;;;;;;;88.40;31.50;;;;;;;-1.42;93.54;99689.86;104870;1322;58408;-78
2021/12/27 08:55:45;;;;;;;97.90;35.50;;;;;;;-1.44;93.46;99685.64;104842;1324;58498;-78
2021/12/27 08:58:12;;;;;;;112.60;42.90;;;;;;;-1.42;93.51;99685.64;104884;1322;63059;-80
2021/12/27 09:00:39;;;;;;;96.00;33.30;;;;;;;-1.37;93.60;99687.88;104696;1322;62089;-78
2021/12/27 09:03:05;;;;;;;134.20;49.00;;;;;;;-1.32;93.51;99686.42;104849;1322;74639;-78
2021/12/27 09:05:32;;;;;;;105.90;37.90;;;;;;;-1.26;93.35;99685.55;104686;1322;71010;-77
2021/12/27 09:07:59;;;;;;;102.50;36.50;;;;;;;-1.21;93.24;99685.55;104868;1322;74072;-79
2021/12/27 09:10:25;;;;;;;114.80;45.40;;;;;;;-1.15;93.04;99692.91;103614;1324;61527;-80
2021/12/27 09:12:52;;;;;;;105.20;42.10;;;;;;;-1.11;93.15;99694.10;104619;1325;58319;-80
2021/12/27 09:15:18;;;;;;;100.00;34.50;;;;;;;-1.07;92.75;99688.41;104884;1323;58573;-80
2021/12/27 09:17:45;;;;;;;95.50;41.70;;;;;;;-1.06;92.63;99685.53;104936;1323;72589;-80
2021/12/27 09:20:12;;;;;;;97.00;42.90;;;;;;;-1.02;92.89;99685.18;104899;1325;72859;-80
2021/12/27 09:22:40;;;;;;;107.70;42.30;;;;;;;-0.97;92.83;99686.72;104593;1326;61624;-77
2021/12/27 09:25:07;;;;;;;98.80;42.80;;;;;;;-0.92;92.71;99691.15;104211;1326;60772;-78
2021/12/27 09:27:34;;;;;;;108.00;38.10;;;;;;;-0.87;92.66;99688.47;104865;1326;74070;-80
2021/12/27 09:30:00;;;;;;;93.70;39.60;;;;;;;-0.82;92.28;99685.48;104300;1330;72813;-80
2021/12/27 09:32:27;;;;;;;92.10;35.40;;;;;;;-0.79;91.88;99687.72;104509;1321;74067;-77
2021/12/27 09:34:54;;;;;;;85.00;30.00;;;;;;;-0.78;91.60;99688.62;104830;1322;61391;-77
2021/12/27 09:37:21;;;;;;;103.60;40.90;;;;;;;-0.76;91.55;99688.63;103627;1329;61665;-79
2021/12/27 09:39:53;;;;;;;107.70;40.90;;;;;;;-0.75;91.40;99683.33;103475;1333;74894;-78
2021/12/27 09:42:25;;;;;;;80.00;34.00;;;;;;;-0.72;91.50;99681.01;104736;1323;71432;-77
2021/12/27 09:44:54;;;;;;;87.30;34.10;;;;;;;-0.70;91.57;99676.55;104713;1322;72471;-77
2021/12/27 09:47:23;;;;;;;99.30;40.70;;;;;;;-0.69;91.41;99681.93;104903;1322;62258;-79
2021/12/27 09:50:09;;;;;;;94.80;40.80;;;;;;;-0.65;91.51;99678.30;104021;1329;60408;-77
2021/12/27 09:52:36;;;;;;;85.50;36.40;;;;;;;-0.61;91.37;99675.42;104408;1322;74420;-80
2021/12/27 09:55:04;;;;;;;87.50;39.50;;;;;;;-0.58;91.36;99664.95;104914;1323;71540;-80
2021/12/27 09:57:33;;;;;;;92.60;34.90;;;;;;;-0.52;91.24;99669.94;104749;1322;74014;-80
2021/12/27 09:59:59;;;;;;;80.30;32.60;;;;;;;-0.48;91.03;99665.98;104889;1322;61200;-79
2021/12/27 10:02:26;;;;;;;87.10;38.50;;;;;;;-0.44;91.15;99665.65;104429;1322;61846;-80
2021/12/27 10:04:54;;;;;;;85.30;34.90;;;;;;;-0.38;91.17;99662.02;104934;1326;75146;-80
2021/12/27 10:07:22;;;;;;;79.10;39.70;;;;;;;-0.31;91.04;99658.45;103761;1328;71391;-77
2021/12/27 10:09:58;;;;;;;98.80;40.00;;;;;;;-0.23;90.83;99654.27;104934;1328;74158;-80
2021/12/27 10:12:28;;;;;;;106.10;37.40;;;;;;;-0.16;90.69;99653.73;104860;1322;61647;-79
2021/12/27 10:15:07;;;;;;;74.30;35.50;;;;;;;-0.11;90.44;99658.79;104943;1322;60359;-79
2021/12/27 10:17:36;;;;;;;90.60;41.50;;;;;;;-0.04;90.34;99659.81;103800;1325;74216;-79
2021/12/27 10:20:28;;;;;;;80.70;38.60;;;;;;;-0.00;90.33;99659.64;104744;1326;71459;-77
2021/12/27 10:22:56;;;;;;;82.60;38.50;;;;;;;0.04;90.20;99654.42;103701;1330;73437;-80
2021/12/27 10:25:25;;;;;;;78.70;31.60;;;;;;;0.07;90.21;99650.52;104447;1325;62704;-79
2021/12/27 10:27:58;;;;;;;86.40;33.60;;;;;;;0.07;89.96;99644.05;104953;1318;59143;-78
2021/12/27 10:30:30;;;;;;;73.90;28.90;;;;;;;0.07;90.08;99642.48;104729;1325;74594;-79
2021/12/27 10:33:13;;;;;;;80.40;33.90;;;;;;;0.07;90.15;99635.60;104923;1312;74215;-80
2021/12/27 10:35:40;;;;;;;71.60;29.40;;;;;;;0.06;90.11;99632.01;104584;1319;72721;-79
2021/12/27 10:38:14;;;;;;;84.10;34.80;;;;;;;0.06;90.03;99632.52;105005;1316;62475;-80
2021/12/27 10:41:11;;;;;;;73.80;31.60;;;;;;;0.07;89.98;99626.03;103834;1329;60625;-80
2021/12/27 10:43:41;;;;;;;74.50;31.40;;;;;;;0.08;90.15;99618.98;105218;1319;73106;-78
2021/12/27 10:46:12;;;;;;;72.70;29.10;;;;;;;0.08;90.18;99622.78;105062;1320;71450;-77
2021/12/27 10:48:42;;;;;;;71.30;29.40;;;;;;;0.08;90.10;99621.88;104363;1312;75655;-78
2021/12/27 10:51:09;;;;;;;73.70;31.10;;;;;;;0.10;90.30;99612.73;104615;1322;62751;-77
2021/12/27 10:53:55;;;;;;;78.80;31.10;;;;;;;0.08;90.15;99608.34;104199;1325;60615;-79
2021/12/27 10:56:25;;;;;;;83.40;35.90;;;;;;;0.09;90.65;99602.92;104216;1321;73964;-79
2021/12/27 10:58:59;;;;;;;81.50;30.30;;;;;;;0.11;90.44;99609.34;104518;1325;70387;-79
2021/12/27 11:01:28;;;;;;;85.30;36.40;;;;;;;0.11;90.45;99605.52;104951;1320;72901;-78
2021/12/27 11:04:01;;;;;;;86.70;33.10;;;;;;;0.12;90.64;99604.20;103980;1331;61141;-82
2021/12/27 11:06:30;;;;;;;66.00;31.10;;;;;;;0.16;90.78;99603.50;104965;1319;60611;-81
2021/12/27 11:08:58;;;;;;;78.20;31.70;;;;;;;0.20;90.64;99602.10;105242;1319;74274;-80
2021/12/27 11:11:26;;;;;;;76.00;32.70;;;;;;;0.22;90.54;99602.41;104593;1305;72279;-80
2021/12/27 11:13:56;;;;;;;67.20;31.80;;;;;;;0.25;90.54;99598.50;105237;1319;72698;-79
2021/12/27 11:16:26;;;;;;;64.50;30.20;;;;;;;0.27;90.59;99597.14;105226;1320;62504;-80
2021/12/27 11:18:54;;;;;;;62.70;29.40;;;;;;;0.30;90.71;99589.77;105219;1318;60357;-77
2021/12/27 11:21:34;;;;;;;80.20;33.80;;;;;;;0.34;90.76;99591.97;104190;1326;74940;-79
2021/12/27 11:24:02;;;;;;;69.80;33.60;;;;;;;0.38;90.73;99592.83;105192;1319;72531;-77